createdAt,value
2023-01-02T00:00:56.377Z,15.50
2023-01-02T00:01:58.910Z,13.00
2023-01-02T00:03:03.417Z,13.30
2023-01-02T00:04:06.609Z,11.60
2023-01-02T00:05:09.078Z,13.50
2023-01-02T00:06:13.039Z,9.50
2023-01-02T00:07:17.115Z,11.80
2023-01-02T00:08:19.583Z,14.40
2023-01-02T00:09:21.692Z,7.00
2023-01-02T00:10:23.707Z,14.30
2023-01-02T00:11:25.713Z,13.40
2023-01-02T00:12:27.746Z,14.50
2023-01-02T00:13:29.821Z,15.90
2023-01-02T00:14:32.052Z,15.40
2023-01-02T00:15:35.611Z,12.09
2023-01-02T00:16:39.672Z,13.60
2023-01-02T00:17:41.612Z,13.10
2023-01-02T00:18:44.552Z,12.78
2023-01-02T00:19:46.726Z,13.82
2023-01-02T00:20:48.727Z,12.70
2023-01-02T00:21:50.800Z,12.80
2023-01-02T00:22:53.165Z,12.60
2023-01-02T00:23:55.384Z,10.40
2023-01-02T00:24:57.430Z,9.90
2023-01-02T00:25:59.506Z,14.40
2023-01-02T00:27:02.114Z,11.40
2023-01-02T00:28:04.376Z,13.00
2023-01-02T00:29:09.871Z,12.20
2023-01-02T00:30:13.209Z,11.70
2023-01-02T00:31:15.723Z,13.60
2023-01-02T00:32:18.404Z,11.00
2023-01-02T00:33:20.623Z,10.20
2023-01-02T00:34:22.696Z,14.10
2023-01-02T00:35:24.680Z,12.00
2023-01-02T00:36:27.863Z,13.10
2023-01-02T00:37:30.266Z,11.90
2023-01-02T00:38:34.460Z,13.50
2023-01-02T00:39:37.065Z,8.20
2023-01-02T00:40:39.597Z,13.40
2023-01-02T00:41:41.594Z,14.60
2023-01-02T00:42:43.728Z,15.80
2023-01-02T00:43:46.168Z,10.20
2023-01-02T00:44:48.178Z,12.70
2023-01-02T00:45:50.287Z,11.60
2023-01-02T00:46:52.601Z,10.50
2023-01-02T00:47:55.213Z,11.20
2023-01-02T00:48:57.384Z,10.90
2023-01-02T00:49:59.509Z,12.80
2023-01-02T00:51:01.611Z,13.30
2023-01-02T00:52:03.984Z,15.20
2023-01-02T00:53:06.217Z,12.50
2023-01-02T00:54:09.200Z,12.50
2023-01-02T00:55:12.232Z,14.20
2023-01-02T00:56:16.786Z,13.50
2023-01-02T00:57:19.177Z,13.60
2023-01-02T00:58:21.309Z,10.30
2023-01-02T00:59:23.754Z,14.40
2023-01-02T01:00:26.464Z,8.10
2023-01-02T01:01:29.069Z,12.20
2023-01-02T01:02:31.992Z,12.18
2023-01-02T01:03:34.459Z,14.82
2023-01-02T01:04:37.933Z,12.70
2023-01-02T01:05:40.667Z,12.10
2023-01-02T01:06:43.257Z,14.90
2023-01-02T01:07:45.188Z,9.40
2023-01-02T01:08:47.668Z,13.40
2023-01-02T01:09:50.340Z,13.60
2023-01-02T01:10:52.575Z,13.00
2023-01-02T01:11:55.129Z,12.00
2023-01-02T01:12:57.851Z,13.80
2023-01-02T01:14:00.486Z,5.45
2023-01-02T01:15:02.980Z,15.40
2023-01-02T01:16:11.850Z,13.20
2023-01-02T01:17:14.105Z,14.30
2023-01-02T01:18:16.190Z,14.70
2023-01-02T01:19:18.909Z,14.20
2023-01-02T01:20:21.847Z,10.55
2023-01-02T01:21:24.275Z,13.80
2023-01-02T01:22:27.646Z,15.40
2023-01-02T01:23:30.262Z,18.30
2023-01-02T01:24:32.374Z,16.00
2023-01-02T01:25:36.797Z,13.40
2023-01-02T01:26:39.339Z,14.40
2023-01-02T01:27:41.692Z,14.90
2023-01-02T01:28:43.991Z,16.20
2023-01-02T01:29:48.178Z,15.80
2023-01-02T01:30:51.055Z,13.40
2023-01-02T01:31:54.402Z,13.50
2023-01-02T01:32:58.282Z,10.60
2023-01-02T01:34:00.590Z,12.10
2023-01-02T01:35:03.062Z,7.00
2023-01-02T01:36:09.101Z,10.90
2023-01-02T01:37:12.806Z,16.60
2023-01-02T01:38:16.230Z,17.60
2023-01-02T01:39:18.413Z,14.30
2023-01-02T01:40:21.925Z,14.10
2023-01-02T01:41:25.897Z,13.55
2023-01-02T01:42:35.143Z,11.70
2023-01-02T01:43:50.213Z,13.50
2023-01-02T01:44:54.693Z,11.60
2023-01-02T01:45:56.993Z,9.00
2023-01-02T01:47:01.027Z,14.00
2023-01-02T01:48:03.474Z,15.10
2023-01-02T01:49:27.783Z,10.45
2023-01-02T01:50:33.796Z,11.80
2023-01-02T01:51:39.653Z,13.80
2023-01-02T01:52:51.440Z,12.20
2023-01-02T01:53:58.541Z,13.30
2023-01-02T01:55:07.953Z,9.10
2023-01-02T01:56:12.992Z,16.40
2023-01-02T01:57:18.957Z,15.60
2023-01-02T01:58:24.803Z,13.40
2023-01-02T01:59:27.502Z,14.70
2023-01-02T02:00:30.548Z,18.27
2023-01-02T02:01:33.231Z,15.30
2023-01-02T02:02:38.222Z,19.30
2023-01-02T02:03:44.254Z,13.20
2023-01-02T02:04:46.750Z,20.20
2023-01-02T02:05:49.473Z,13.70
2023-01-02T02:06:53.693Z,13.82
2023-01-02T02:08:08.561Z,14.50
2023-01-02T02:09:17.173Z,14.30
2023-01-02T02:10:20.179Z,12.10
2023-01-02T02:11:22.385Z,15.10
2023-01-02T02:12:28.261Z,17.20
2023-01-02T02:13:33.545Z,12.80
2023-01-02T02:14:36.407Z,5.60
2023-01-02T02:16:14.518Z,14.40
2023-01-02T02:17:32.375Z,13.50
2023-01-02T02:20:23.747Z,11.00
2023-01-02T02:21:49.648Z,15.50
2023-01-02T02:23:14.436Z,14.90
2023-01-02T02:24:35.954Z,17.10
2023-01-02T02:25:57.049Z,9.80
2023-01-02T02:27:39.758Z,16.70
2023-01-02T02:29:19.407Z,18.80
2023-01-02T02:30:25.063Z,10.30
2023-01-02T02:31:36.653Z,17.80
2023-01-02T02:32:59.446Z,16.10
2023-01-02T02:34:24.751Z,14.90
2023-01-02T02:35:43.394Z,15.60
2023-01-02T02:38:11.170Z,6.10
2023-01-02T02:39:39.873Z,11.10
2023-01-02T02:40:58.084Z,12.60
2023-01-02T02:42:10.038Z,14.10
2023-01-02T02:43:51.048Z,17.40
2023-01-02T02:45:18.126Z,13.60
2023-01-02T02:46:27.819Z,9.90
2023-01-02T02:47:39.739Z,12.70
2023-01-02T02:48:58.029Z,12.80
2023-01-02T02:50:18.819Z,13.60
2023-01-02T02:51:36.675Z,14.00
2023-01-02T02:52:48.151Z,12.00
2023-01-02T02:53:54.377Z,16.30
2023-01-02T02:55:00.171Z,14.40
2023-01-02T02:56:06.064Z,12.00
2023-01-02T02:57:09.629Z,12.20
2023-01-02T02:58:14.372Z,12.00
2023-01-02T02:59:18.267Z,13.30
2023-01-02T03:00:23.501Z,8.90
2023-01-02T03:01:30.940Z,11.30
2023-01-02T03:02:32.764Z,11.80
2023-01-02T03:03:34.967Z,10.40
2023-01-02T03:04:37.836Z,13.27
2023-01-02T03:05:42.981Z,12.70
2023-01-02T03:07:10.379Z,14.40
2023-01-02T03:08:19.390Z,9.90
2023-01-02T03:09:40.491Z,15.60
2023-01-02T03:10:55.628Z,12.70
2023-01-02T03:12:04.330Z,12.50
2023-01-02T03:13:13.876Z,14.60
2023-01-02T03:14:22.918Z,12.60
2023-01-02T03:15:37.484Z,8.40
2023-01-02T03:16:42.252Z,15.80
2023-01-02T03:18:01.056Z,13.80
2023-01-02T03:19:09.906Z,15.60
2023-01-02T03:20:15.160Z,11.60
2023-01-02T03:21:31.250Z,14.60
2023-01-02T03:22:36.200Z,15.10
2023-01-02T03:23:44.764Z,12.90
2023-01-02T03:24:51.145Z,9.00
2023-01-02T03:25:54.693Z,12.90
2023-01-02T03:27:00.850Z,13.00
2023-01-02T03:28:06.648Z,13.60
2023-01-02T03:29:12.853Z,10.70
2023-01-02T03:30:19.391Z,14.40
2023-01-02T03:31:24.958Z,12.80
2023-01-02T03:32:30.706Z,14.00
2023-01-02T03:33:36.653Z,14.20
2023-01-02T03:34:42.086Z,14.90
2023-01-02T03:35:47.923Z,15.30
2023-01-02T03:36:56.581Z,14.70
2023-01-02T03:37:59.808Z,15.90
2023-01-02T03:39:08.789Z,12.00
2023-01-02T03:40:15.496Z,13.60
2023-01-02T03:41:24.694Z,11.80
2023-01-02T03:42:36.392Z,13.00
2023-01-02T03:43:41.195Z,13.70
2023-01-02T03:44:47.579Z,12.00
2023-01-02T03:46:02.312Z,14.50
2023-01-02T03:47:28.082Z,16.10
2023-01-02T03:48:36.692Z,9.50
2023-01-02T03:49:42.541Z,11.10
2023-01-02T03:50:48.863Z,15.40
2023-01-02T03:51:51.165Z,12.30
2023-01-02T03:52:53.482Z,13.70
2023-01-02T03:53:56.881Z,17.80
2023-01-02T03:55:00.676Z,11.40
2023-01-02T03:56:26.413Z,14.50
2023-01-02T03:57:38.108Z,13.40
2023-01-02T03:58:59.494Z,10.50
2023-01-02T04:00:11.650Z,15.20
2023-01-02T04:01:32.222Z,16.00
2023-01-02T04:02:38.114Z,14.80
2023-01-02T04:03:49.729Z,17.40
2023-01-02T04:04:58.078Z,18.60
2023-01-02T04:06:05.561Z,14.70
2023-01-02T04:07:14.526Z,16.70
2023-01-02T04:08:26.118Z,16.60
2023-01-02T04:09:32.497Z,16.00
2023-01-02T04:10:37.996Z,18.50
2023-01-02T04:11:43.712Z,19.10
2023-01-02T04:12:49.821Z,14.00
2023-01-02T04:13:55.673Z,16.40
2023-01-02T04:15:01.367Z,13.80
2023-01-02T04:16:06.396Z,15.00
2023-01-02T04:17:12.018Z,17.90
2023-01-02T04:18:17.864Z,15.50
2023-01-02T04:19:24.185Z,13.00
2023-01-02T04:20:30.377Z,19.70
2023-01-02T04:21:36.154Z,18.90
2023-01-02T04:22:54.229Z,17.10
2023-01-02T04:25:16.502Z,18.90
2023-01-02T04:27:44.701Z,22.30
2023-01-02T04:28:49.015Z,24.20
2023-01-02T04:29:51.378Z,26.60
2023-01-02T04:30:57.395Z,23.60
2023-01-02T04:32:03.325Z,21.10
2023-01-02T04:33:08.557Z,18.90
2023-01-02T04:34:14.345Z,20.90
2023-01-02T04:35:20.655Z,20.00
2023-01-02T04:36:23.735Z,21.50
2023-01-02T04:37:31.951Z,17.60
2023-01-02T04:38:34.133Z,22.00
2023-01-02T04:39:38.483Z,16.00
2023-01-02T04:40:41.161Z,12.90
2023-01-02T04:41:43.633Z,15.30
2023-01-02T04:42:45.648Z,14.90
2023-01-02T04:43:47.540Z,15.90
2023-01-02T04:44:49.474Z,17.67
2023-01-02T04:45:52.024Z,17.60
2023-01-02T04:46:54.191Z,16.40
2023-01-02T04:47:56.813Z,16.20
2023-01-02T04:48:59.450Z,16.80
2023-01-02T04:50:02.058Z,18.30
2023-01-02T04:51:04.330Z,15.00
2023-01-02T04:52:08.703Z,14.50
2023-01-02T04:53:10.907Z,17.60
2023-01-02T04:54:13.639Z,18.60
2023-01-02T04:55:16.139Z,19.09
2023-01-02T04:56:20.033Z,17.40
2023-01-02T04:57:22.290Z,20.36
2023-01-02T04:58:26.205Z,18.60
2023-01-02T04:59:28.217Z,16.50
2023-01-02T05:00:30.428Z,21.20
2023-01-02T05:01:32.652Z,19.10
2023-01-02T05:02:38.949Z,16.40
2023-01-02T05:03:44.500Z,16.50
2023-01-02T05:04:46.622Z,18.90
2023-01-02T05:05:49.013Z,20.70
2023-01-02T05:06:52.317Z,15.70
2023-01-02T05:07:54.357Z,20.00
2023-01-02T05:08:58.168Z,19.70
2023-01-02T05:10:00.282Z,12.90
2023-01-02T05:11:10.883Z,18.70
2023-01-02T05:12:13.055Z,16.60
2023-01-02T05:13:15.188Z,19.00
2023-01-02T05:14:17.236Z,19.10
2023-01-02T05:15:19.284Z,17.50
2023-01-02T05:16:21.800Z,16.20
2023-01-02T05:17:23.916Z,20.60
2023-01-02T05:18:28.760Z,10.60
2023-01-02T05:19:31.260Z,21.00
2023-01-02T05:20:34.811Z,19.30
2023-01-02T05:21:56.660Z,19.50
2023-01-02T05:23:17.401Z,12.80
2023-01-02T05:24:19.517Z,21.20
2023-01-02T05:25:21.958Z,17.90
2023-01-02T05:26:25.668Z,19.10
2023-01-02T05:27:27.953Z,15.10
2023-01-02T05:28:33.759Z,16.20
2023-01-02T05:29:34.011Z,14.10
2023-01-02T05:30:38.559Z,19.90
2023-01-02T05:31:42.633Z,16.30
2023-01-02T05:32:44.920Z,12.40
2023-01-02T05:33:52.695Z,17.50
2023-01-02T05:34:54.957Z,5.90
2023-01-02T05:35:57.102Z,17.90
2023-01-02T05:36:59.237Z,11.70
2023-01-02T05:38:01.641Z,18.70
2023-01-02T05:39:11.738Z,13.90
2023-01-02T05:40:15.218Z,18.40
2023-01-02T05:41:18.307Z,18.60
2023-01-02T05:42:20.575Z,17.80
2023-01-02T05:43:23.693Z,21.30
2023-01-02T05:44:25.940Z,17.00
2023-01-02T05:45:27.990Z,15.40
2023-01-02T05:46:30.314Z,15.70
2023-01-02T05:47:33.152Z,17.10
2023-01-02T05:48:35.754Z,17.00
2023-01-02T05:49:37.981Z,16.60
2023-01-02T05:50:40.311Z,20.00
2023-01-02T05:51:44.435Z,16.00
2023-01-02T05:52:46.703Z,14.60
2023-01-02T05:53:50.360Z,16.50
2023-01-02T05:54:52.448Z,21.60
2023-01-02T05:55:54.636Z,13.40
2023-01-02T05:56:56.824Z,13.80
2023-01-02T05:58:00.819Z,16.90
2023-01-02T05:59:05.937Z,16.20
2023-01-02T06:00:09.808Z,23.10
2023-01-02T06:01:19.899Z,14.80
2023-01-02T06:02:23.191Z,16.90
2023-01-02T06:03:25.426Z,17.10
2023-01-02T06:04:27.535Z,17.40
2023-01-02T06:05:31.132Z,16.00
2023-01-02T06:07:52.937Z,15.80
2023-01-02T06:08:54.920Z,15.30
2023-01-02T06:09:57.185Z,18.10
2023-01-02T06:10:59.922Z,17.30
2023-01-02T06:12:02.424Z,18.55
2023-01-02T06:13:04.982Z,15.50
2023-01-02T06:14:08.445Z,13.80
2023-01-02T06:15:10.972Z,16.20
2023-01-02T06:16:13.613Z,16.36
2023-01-02T06:17:16.979Z,17.00
2023-01-02T06:18:19.038Z,18.30
2023-01-02T06:19:21.127Z,13.10
2023-01-02T06:20:23.113Z,14.40
2023-01-02T06:21:25.679Z,12.56
2023-01-02T06:22:27.587Z,18.90
2023-01-02T06:23:29.634Z,19.11
2023-01-02T06:24:35.770Z,18.80
2023-01-02T06:25:38.238Z,21.67
2023-01-02T06:26:40.707Z,21.91
2023-01-02T06:27:42.716Z,24.60
2023-01-02T06:28:47.625Z,11.50
2023-01-02T06:29:49.695Z,20.00
2023-01-02T06:30:52.117Z,18.70
2023-01-02T06:31:55.297Z,22.40
2023-01-02T06:32:57.704Z,22.80
2023-01-02T06:34:02.685Z,20.40
2023-01-02T06:35:05.661Z,15.10
2023-01-02T06:36:11.953Z,19.00
2023-01-02T06:37:13.929Z,22.10
2023-01-02T06:38:16.001Z,19.40
2023-01-02T06:39:18.425Z,27.10
2023-01-02T06:40:20.859Z,24.60
2023-01-02T06:41:23.037Z,24.40
2023-01-02T06:42:25.208Z,28.11
2023-01-02T06:43:28.785Z,27.10
2023-01-02T06:44:30.996Z,23.40
2023-01-02T06:45:33.186Z,34.30
2023-01-02T06:46:35.625Z,31.90
2023-01-02T06:47:38.602Z,46.60
2023-01-02T06:48:42.520Z,39.00
2023-01-02T06:49:44.954Z,28.40
2023-01-02T06:50:47.062Z,33.90
2023-01-02T06:51:51.191Z,26.80
2023-01-02T06:52:53.357Z,37.70
2023-01-02T06:53:56.350Z,29.60
2023-01-02T06:54:58.518Z,40.36
2023-01-02T06:56:01.745Z,34.30
2023-01-02T06:57:04.152Z,31.80
2023-01-02T06:58:10.062Z,32.10
2023-01-02T06:59:10.876Z,32.90
2023-01-02T07:00:15.174Z,21.91
2023-01-02T07:01:20.734Z,32.00
2023-01-02T07:02:23.599Z,36.00
2023-01-02T07:03:25.887Z,29.55
2023-01-02T07:04:28.199Z,22.80
2023-01-02T07:05:30.360Z,21.60
2023-01-02T07:06:34.395Z,28.30
2023-01-02T07:07:37.295Z,25.50
2023-01-02T07:08:40.299Z,24.18
2023-01-02T07:09:42.856Z,23.45
2023-01-02T07:10:49.436Z,27.64
2023-01-02T07:11:49.414Z,25.70
2023-01-02T07:12:51.671Z,26.00
2023-01-02T07:13:54.774Z,22.80
2023-01-02T07:14:57.421Z,26.60
2023-01-02T07:17:15.978Z,24.90
2023-01-02T07:18:17.816Z,21.44
2023-01-02T07:19:19.857Z,29.22
2023-01-02T07:20:22.952Z,26.82
2023-01-02T07:21:25.323Z,24.30
2023-01-02T07:22:27.962Z,28.00
2023-01-02T07:23:30.081Z,30.30
2023-01-02T07:24:32.659Z,33.60
2023-01-02T07:25:37.088Z,24.10
2023-01-02T07:26:41.214Z,33.60
2023-01-02T07:27:43.879Z,24.40
2023-01-02T07:28:47.324Z,27.10
2023-01-02T07:29:49.582Z,22.60
2023-01-02T07:30:53.601Z,33.50
2023-01-02T07:31:56.294Z,27.50
2023-01-02T07:32:58.735Z,24.45
2023-01-02T07:34:01.490Z,27.30
2023-01-02T07:35:04.605Z,24.09
2023-01-02T07:36:11.117Z,27.20
2023-01-02T07:37:13.257Z,33.00
2023-01-02T07:38:15.305Z,28.90
2023-01-02T07:39:17.140Z,29.78
2023-01-02T07:40:19.637Z,24.30
2023-01-02T07:41:24.616Z,22.20
2023-01-02T07:42:28.297Z,20.50
2023-01-02T07:43:30.500Z,23.60
2023-01-02T07:44:32.612Z,20.60
2023-01-02T07:45:34.623Z,22.50
2023-01-02T07:46:36.878Z,20.40
2023-01-02T07:47:38.950Z,21.30
2023-01-02T07:48:41.274Z,26.10
2023-01-02T07:49:43.655Z,19.50
2023-01-02T07:50:46.476Z,22.60
2023-01-02T07:51:48.607Z,29.00
2023-01-02T07:52:50.594Z,26.90
2023-01-02T07:53:53.676Z,28.40
2023-01-02T07:54:56.922Z,30.90
2023-01-02T07:56:00.248Z,27.00
2023-01-02T07:57:03.058Z,24.30
2023-01-02T07:58:05.373Z,16.60
2023-01-02T07:59:08.062Z,15.00
2023-01-02T08:00:13.065Z,22.30
2023-01-02T08:01:15.793Z,19.70
2023-01-02T08:02:19.327Z,19.70
2023-01-02T08:03:22.447Z,24.60
2023-01-02T08:04:25.693Z,19.50
2023-01-02T08:05:28.121Z,20.80
2023-01-02T08:06:30.619Z,23.90
2023-01-02T08:07:32.848Z,24.60
2023-01-02T08:08:36.695Z,27.00
2023-01-02T08:09:39.024Z,27.60
2023-01-02T08:10:41.346Z,27.00
2023-01-02T08:11:45.677Z,22.90
2023-01-02T08:12:47.982Z,19.00
2023-01-02T08:13:50.522Z,24.60
2023-01-02T08:14:52.949Z,19.30
2023-01-02T08:15:54.877Z,24.10
2023-01-02T08:16:57.359Z,24.20
2023-01-02T08:18:00.654Z,22.90
2023-01-02T08:19:02.963Z,23.50
2023-01-02T08:20:08.334Z,25.10
2023-01-02T08:21:11.319Z,24.40
2023-01-02T08:22:13.379Z,23.00
2023-01-02T08:23:15.511Z,27.50
2023-01-02T08:24:17.837Z,25.50
2023-01-02T08:25:20.030Z,23.30
2023-01-02T08:26:24.036Z,17.09
2023-01-02T08:27:27.409Z,24.90
2023-01-02T08:28:30.207Z,24.00
2023-01-02T08:29:32.455Z,19.45
2023-01-02T08:30:34.728Z,25.20
2023-01-02T08:31:43.354Z,24.60
2023-01-02T08:32:44.710Z,18.70
2023-01-02T08:33:47.576Z,23.50
2023-01-02T08:34:50.194Z,19.82
2023-01-02T08:35:52.716Z,18.50
2023-01-02T08:36:55.628Z,23.00
2023-01-02T08:37:58.149Z,24.20
2023-01-02T08:39:01.163Z,10.60
2023-01-02T08:40:04.312Z,21.00
2023-01-02T08:41:07.384Z,20.30
2023-01-02T08:42:09.531Z,22.30
2023-01-02T08:43:12.044Z,28.30
2023-01-02T08:44:15.564Z,22.90
2023-01-02T08:45:18.885Z,25.10
2023-01-02T08:46:21.022Z,24.10
2023-01-02T08:47:23.411Z,23.20
2023-01-02T08:48:25.306Z,26.10
2023-01-02T08:49:27.423Z,23.60
2023-01-02T08:50:29.769Z,26.80
2023-01-02T08:51:31.849Z,18.90
2023-01-02T08:52:35.647Z,23.40
2023-01-02T08:53:37.897Z,25.60
2023-01-02T08:54:42.584Z,27.40
2023-01-02T08:55:44.647Z,20.20
2023-01-02T08:56:47.936Z,23.50
2023-01-02T08:57:49.910Z,29.73
2023-01-02T08:58:57.541Z,26.00
2023-01-02T08:59:59.559Z,25.70
2023-01-02T09:01:02.713Z,22.20
2023-01-02T09:02:05.052Z,24.40
2023-01-02T09:03:09.538Z,25.40
2023-01-02T09:04:13.149Z,24.91
2023-01-02T09:05:15.872Z,19.90
2023-01-02T09:06:22.008Z,24.60
2023-01-02T09:07:23.972Z,25.70
2023-01-02T09:08:25.922Z,23.10
2023-01-02T09:09:28.452Z,24.40
2023-01-02T09:10:31.153Z,23.10
2023-01-02T09:11:35.952Z,27.40
2023-01-02T09:12:38.098Z,23.70
2023-01-02T09:13:41.693Z,23.10
2023-01-02T09:14:44.153Z,26.60
2023-01-02T09:15:46.684Z,24.10
2023-01-02T09:16:50.343Z,14.50
2023-01-02T09:17:52.706Z,27.00
2023-01-02T09:18:57.093Z,24.40
2023-01-02T09:19:59.107Z,24.80
2023-01-02T09:21:01.921Z,25.10
2023-01-02T09:22:03.920Z,27.30
2023-01-02T09:23:06.567Z,24.40
2023-01-02T09:24:09.683Z,22.82
2023-01-02T09:25:11.959Z,19.20
2023-01-02T09:26:15.235Z,19.73
2023-01-02T09:27:17.278Z,18.10
2023-01-02T09:28:19.241Z,21.50
2023-01-02T09:29:21.237Z,22.00
2023-01-02T09:30:23.637Z,20.60
2023-01-02T09:31:26.905Z,24.30
2023-01-02T09:32:30.195Z,27.00
2023-01-02T09:33:32.999Z,24.90
2023-01-02T09:34:35.433Z,24.70
2023-01-02T09:35:38.404Z,18.40
2023-01-02T09:36:40.891Z,20.60
2023-01-02T09:37:44.981Z,19.40
2023-01-02T09:38:56.111Z,24.70
2023-01-02T09:39:58.368Z,21.00
2023-01-02T09:41:04.628Z,25.30
2023-01-02T09:42:11.135Z,24.20
2023-01-02T09:43:17.416Z,25.20
2023-01-02T09:44:40.106Z,22.20
2023-01-02T09:45:45.851Z,23.70
2023-01-02T09:46:54.769Z,27.40
2023-01-02T09:47:59.464Z,22.90
2023-01-02T09:49:04.413Z,21.80
2023-01-02T09:50:10.746Z,30.90
2023-01-02T09:51:13.352Z,27.10
2023-01-02T09:52:27.741Z,26.00
2023-01-02T09:53:33.084Z,24.30
2023-01-02T09:54:35.444Z,24.90
2023-01-02T09:56:05.826Z,23.10
2023-01-02T09:57:24.836Z,22.10
2023-01-02T09:58:30.641Z,23.90
2023-01-02T09:59:51.265Z,26.70
2023-01-02T10:00:54.407Z,23.20
2023-01-02T10:02:09.258Z,21.90
2023-01-02T10:03:24.219Z,26.70
2023-01-02T10:04:41.820Z,23.40
2023-01-02T10:05:54.654Z,25.10
2023-01-02T10:07:01.821Z,26.90
2023-01-02T10:08:34.125Z,17.60
2023-01-02T10:09:45.837Z,23.60
2023-01-02T10:11:07.188Z,24.40
2023-01-02T10:12:19.479Z,23.90
2023-01-02T10:14:16.706Z,21.10
2023-01-02T10:15:03.210Z,26.10
2023-01-02T10:16:09.247Z,24.80
2023-01-02T10:17:15.989Z,25.00
2023-01-02T10:18:25.041Z,31.50
2023-01-02T10:19:43.924Z,29.30
2023-01-02T10:20:53.100Z,32.80
2023-01-02T10:21:59.914Z,38.60
2023-01-02T10:23:06.036Z,37.40
2023-01-02T10:24:38.607Z,32.60
2023-01-02T10:25:49.453Z,25.70
2023-01-02T10:26:52.316Z,32.40
2023-01-02T10:27:58.366Z,29.50
2023-01-02T10:29:46.851Z,31.30
2023-01-02T10:31:06.940Z,35.10
2023-01-02T10:32:13.971Z,27.60
2023-01-02T10:33:51.718Z,29.00
2023-01-02T10:34:47.165Z,34.90
2023-01-02T10:35:53.562Z,37.20
2023-01-02T10:37:06.184Z,37.30
2023-01-02T10:38:13.450Z,42.20
2023-01-02T10:39:25.571Z,38.20
2023-01-02T10:40:32.240Z,37.40
2023-01-02T10:41:36.433Z,39.20
2023-01-02T10:42:40.151Z,38.10
2023-01-02T10:43:42.924Z,37.20
2023-01-02T10:44:46.802Z,37.30
2023-01-02T10:45:50.048Z,37.00
2023-01-02T10:46:54.681Z,38.30
2023-01-02T10:47:56.765Z,37.00
2023-01-02T10:48:59.017Z,39.50
2023-01-02T10:50:04.070Z,34.00
2023-01-02T10:51:08.967Z,37.80
2023-01-02T10:52:36.395Z,33.20
2023-01-02T10:53:39.355Z,35.00
2023-01-02T10:54:59.589Z,34.18
2023-01-02T10:56:04.440Z,46.30
2023-01-02T10:57:10.803Z,38.80
2023-01-02T10:58:25.724Z,41.60
2023-01-02T10:59:29.150Z,40.30
2023-01-02T11:00:35.020Z,43.30
2023-01-02T11:01:41.128Z,37.90
2023-01-02T11:02:53.215Z,33.60
2023-01-02T11:03:59.787Z,38.90
2023-01-02T11:05:03.966Z,34.60
2023-01-02T11:06:26.257Z,32.00
2023-01-02T11:07:18.153Z,44.00
2023-01-02T11:08:32.756Z,39.40
2023-01-02T11:09:39.523Z,36.30
2023-01-02T11:10:43.541Z,34.30
2023-01-02T11:11:54.884Z,34.50
2023-01-02T11:13:02.643Z,36.90
2023-01-02T11:14:07.981Z,28.90
2023-01-02T11:15:14.425Z,37.80
2023-01-02T11:16:18.417Z,37.90
2023-01-02T11:17:23.369Z,40.70
2023-01-02T11:18:31.368Z,39.90
2023-01-02T11:19:52.812Z,37.90
2023-01-02T11:21:00.442Z,31.50
2023-01-02T11:22:04.325Z,34.80
2023-01-02T11:23:07.373Z,36.10
2023-01-02T11:24:15.193Z,36.18
2023-01-02T11:25:24.064Z,34.10
2023-01-02T11:26:29.306Z,37.50
2023-01-02T11:27:37.779Z,42.50
2023-01-02T11:28:42.236Z,32.90
2023-01-02T11:29:47.819Z,32.60
2023-01-02T11:30:53.733Z,33.90
2023-01-02T11:32:00.543Z,35.50
2023-01-02T11:33:16.609Z,33.00
2023-01-02T11:34:21.716Z,38.90
2023-01-02T11:35:39.127Z,37.20
2023-01-02T11:36:43.976Z,33.80
2023-01-02T11:37:50.391Z,30.50
2023-01-02T11:38:58.398Z,35.40
2023-01-02T11:40:06.543Z,33.30
2023-01-02T11:41:30.637Z,36.30
2023-01-02T11:42:59.013Z,35.10
2023-01-02T11:44:03.419Z,38.80
2023-01-02T11:45:09.429Z,41.60
2023-01-02T11:46:17.478Z,32.20
2023-01-02T11:47:24.329Z,41.10
2023-01-02T11:48:28.074Z,35.70
2023-01-02T11:49:36.796Z,37.20
2023-01-02T11:50:39.849Z,36.30
2023-01-02T11:51:42.254Z,36.10
2023-01-02T11:52:48.948Z,39.20
2023-01-02T11:53:53.669Z,38.20
2023-01-02T11:55:02.271Z,39.60
2023-01-02T11:56:14.591Z,33.80
2023-01-02T11:57:46.425Z,32.50
2023-01-02T11:58:52.334Z,33.80
2023-01-02T11:59:57.370Z,32.80
2023-01-02T12:01:12.834Z,38.50
2023-01-02T12:02:22.070Z,33.80
2023-01-02T12:03:29.860Z,32.90
2023-01-02T12:04:33.487Z,41.50
2023-01-02T12:05:39.908Z,36.10
2023-01-02T12:07:01.545Z,36.10
2023-01-02T12:08:11.415Z,37.20
2023-01-02T12:09:32.978Z,37.50
2023-01-02T12:10:55.914Z,39.90
2023-01-02T12:12:14.964Z,35.80
2023-01-02T12:13:26.536Z,36.10
2023-01-02T12:14:38.533Z,38.60
2023-01-02T12:15:57.207Z,39.40
2023-01-02T12:17:09.022Z,41.20
2023-01-02T12:18:50.478Z,39.00
2023-01-02T12:20:08.670Z,35.40
2023-01-02T12:21:26.592Z,30.50
2023-01-02T12:22:49.537Z,38.80
2023-01-02T12:24:15.427Z,38.50
2023-01-02T12:25:44.925Z,40.50
2023-01-02T12:27:09.761Z,39.80
2023-01-02T12:28:35.242Z,41.60
2023-01-02T12:29:47.117Z,37.00
2023-01-02T12:31:15.070Z,42.30
2023-01-02T12:32:33.435Z,39.40
2023-01-02T12:33:51.470Z,26.50
2023-01-02T12:35:16.983Z,36.80
2023-01-02T12:36:36.254Z,38.50
2023-01-02T12:37:42.296Z,40.50
2023-01-02T12:39:24.875Z,33.80
2023-01-02T12:40:38.350Z,27.40
2023-01-02T12:42:19.471Z,37.20
2023-01-02T12:43:28.412Z,28.10
2023-01-02T12:44:52.542Z,32.50
2023-01-02T12:46:14.479Z,28.90
2023-01-02T12:47:35.580Z,30.50
2023-01-02T12:48:48.466Z,32.50
2023-01-02T12:50:11.037Z,33.90
2023-01-02T12:51:37.548Z,35.60
2023-01-02T12:53:11.030Z,33.90
2023-01-02T12:54:32.136Z,34.90
2023-01-02T12:55:43.911Z,33.40
2023-01-02T12:57:05.144Z,37.90
2023-01-02T12:58:14.003Z,39.50
2023-01-02T12:59:31.685Z,33.20
2023-01-02T13:00:40.389Z,27.70
2023-01-02T13:01:58.457Z,31.10
2023-01-02T13:03:07.465Z,35.80
2023-01-02T13:04:19.330Z,33.00
2023-01-02T13:05:24.893Z,36.00
2023-01-02T13:06:46.698Z,26.90
2023-01-02T13:07:54.721Z,34.50
2023-01-02T13:09:00.476Z,30.50
2023-01-02T13:10:05.734Z,31.90
2023-01-02T13:11:10.103Z,38.00
2023-01-02T13:13:34.632Z,35.70
2023-01-02T13:14:40.789Z,28.30
2023-01-02T13:15:46.643Z,34.90
2023-01-02T13:17:04.876Z,33.40
2023-01-02T13:18:26.020Z,40.70
2023-01-02T13:19:37.575Z,42.80
2023-01-02T13:21:02.303Z,36.80
2023-01-02T13:22:24.116Z,48.40
2023-01-02T13:24:58.488Z,45.70
2023-01-02T13:26:08.528Z,31.40
2023-01-02T13:27:11.869Z,37.70
2023-01-02T13:28:14.841Z,36.90
2023-01-02T13:29:20.792Z,33.45
2023-01-02T13:30:38.986Z,29.60
2023-01-02T13:31:47.192Z,32.50
2023-01-02T13:32:49.598Z,34.30
2023-01-02T13:33:54.173Z,33.64
2023-01-02T13:35:00.853Z,37.40
2023-01-02T13:36:28.016Z,33.70
2023-01-02T13:37:30.803Z,38.50
2023-01-02T13:38:36.642Z,38.45
2023-01-02T13:39:43.249Z,33.90
2023-01-02T13:40:56.550Z,28.40
2023-01-02T13:42:20.561Z,26.60
2023-01-02T13:43:26.746Z,28.80
2023-01-02T13:44:38.834Z,29.30
2023-01-02T13:45:56.265Z,25.30
2023-01-02T13:47:03.717Z,32.80
2023-01-02T13:48:25.794Z,30.00
2023-01-02T13:49:28.607Z,26.90
2023-01-02T13:50:37.224Z,28.27
2023-01-02T13:51:40.088Z,28.50
2023-01-02T13:52:47.034Z,28.73
2023-01-02T13:53:51.367Z,29.70
2023-01-02T13:55:21.990Z,27.70
2023-01-02T13:56:27.996Z,27.10
2023-01-02T13:57:32.224Z,30.10
2023-01-02T13:58:57.514Z,25.90
2023-01-02T14:00:07.304Z,28.10
2023-01-02T14:01:24.663Z,28.70
2023-01-02T14:02:27.855Z,26.60
2023-01-02T14:03:35.118Z,26.30
2023-01-02T14:04:40.057Z,24.60
2023-01-02T14:06:01.291Z,26.90
2023-01-02T14:07:28.389Z,25.50
2023-01-02T14:08:36.720Z,27.20
2023-01-02T14:10:08.618Z,30.90
2023-01-02T14:11:14.205Z,24.70
2023-01-02T14:12:16.771Z,26.20
2023-01-02T14:13:23.179Z,33.80
2023-01-02T14:14:50.913Z,25.50
2023-01-02T14:17:20.318Z,27.80
2023-01-02T14:18:30.709Z,27.10
2023-01-02T14:19:34.237Z,32.70
2023-01-02T14:20:40.163Z,34.10
2023-01-02T14:21:54.579Z,26.80
2023-01-02T14:23:06.222Z,26.50
2023-01-02T14:24:16.768Z,30.70
2023-01-02T14:25:18.144Z,34.60
2023-01-02T14:26:26.669Z,28.10
2023-01-02T14:27:35.642Z,35.00
2023-01-02T14:28:39.518Z,22.50
2023-01-02T14:29:53.340Z,34.10
2023-01-02T14:30:55.331Z,31.80
2023-01-02T14:32:10.141Z,31.30
2023-01-02T14:33:16.103Z,30.50
2023-01-02T14:34:25.000Z,34.70
2023-01-02T14:35:36.674Z,32.80
2023-01-02T14:36:44.608Z,36.00
2023-01-02T14:38:09.487Z,35.70
2023-01-02T14:40:46.441Z,31.70